Time;durP1;ratioP1;P1;durP2;ratioP2;P2;SDS_P1;SDS_P2;PMS_P1;PMS_P2;Temp;Humidity;BMP_temperature;BMP_pressure;BME280_temperature;BME280_humidity;BME280_pressure;Samples;Min_cycle;Max_cycle;Signal;HPM_P1;HPM_P2
2023/10/22 00:00:13;;;;;;;3.42;1.10;;;13.30;99.90;;;;;;5053070;28;20079;-44
2023/10/22 00:02:39;;;;;;;4.07;1.13;;;13.20;99.90;;;;;;5055713;28;20055;-45
2023/10/22 00:05:06;;;;;;;6.55;1.35;;;13.30;99.90;;;;;;5052470;28;20049;-45
2023/10/22 00:07:32;;;;;;;5.95;1.30;;;13.30;99.90;;;;;;5060832;28;20189;-46
2023/10/22 00:09:58;;;;;;;3.53;1.10;;;13.30;99.90;;;;;;5055908;28;20045;-46
2023/10/22 00:12:24;;;;;;;3.88;1.30;;;13.40;99.90;;;;;;5068094;28;20434;-45
2023/10/22 00:14:49;;;;;;;3.45;0.90;;;13.40;99.90;;;;;;5055986;28;20459;-46
2023/10/22 00:17:15;;;;;;;2.28;0.93;;;13.50;99.90;;;;;;5071313;28;20072;-46
2023/10/22 00:19:41;;;;;;;4.35;1.13;;;13.50;99.90;;;;;;5070226;28;20074;-46
2023/10/22 00:22:08;;;;;;;3.92;1.08;;;13.50;99.90;;;;;;5060524;28;20398;-46
2023/10/22 00:24:34;;;;;;;5.60;1.20;;;13.50;99.90;;;;;;5051260;28;20117;-48
2023/10/22 00:27:00;;;;;;;6.95;1.33;;;13.50;99.90;;;;;;5051775;28;20132;-46
2023/10/22 00:29:26;;;;;;;3.05;1.00;;;13.50;99.90;;;;;;5052137;28;20463;-46
2023/10/22 00:31:52;;;;;;;5.68;1.10;;;13.50;99.90;;;;;;5051747;28;20063;-46
2023/10/22 00:34:17;;;;;;;3.60;1.15;;;13.50;99.90;;;;;;5053584;28;20132;-48
2023/10/22 00:36:44;;;;;;;4.22;1.20;;;13.60;99.90;;;;;;5053447;28;20072;-46
2023/10/22 00:39:10;;;;;;;5.63;1.15;;;13.60;99.90;;;;;;5058833;28;20048;-45
2023/10/22 00:41:36;;;;;;;4.53;1.20;;;13.50;99.90;;;;;;5065799;28;20092;-46
2023/10/22 00:44:01;;;;;;;4.72;1.10;;;13.50;99.90;;;;;;5071421;28;20098;-49
2023/10/22 00:46:28;;;;;;;3.47;1.02;;;13.50;99.90;;;;;;5071124;28;20090;-47
2023/10/22 00:48:55;;;;;;;4.25;1.50;;;13.40;99.90;;;;;;5071381;28;20044;-48
2023/10/22 00:51:21;;;;;;;6.40;1.35;;;13.40;99.90;;;;;;5060428;28;20051;-46
2023/10/22 00:53:47;;;;;;;5.47;1.00;;;13.40;99.90;;;;;;5059856;28;20394;-45
2023/10/22 00:56:14;;;;;;;4.13;1.20;;;13.40;99.90;;;;;;5058001;28;20044;-48
2023/10/22 00:58:41;;;;;;;2.72;0.80;;;13.40;99.90;;;;;;5060672;28;20507;-45
2023/10/22 01:01:08;;;;;;;2.00;0.85;;;13.40;99.90;;;;;;5063205;28;20045;-47
2023/10/22 01:03:38;;;;;;;5.53;1.20;;;13.40;99.90;;;;;;5059755;28;20052;-47
2023/10/22 01:06:04;;;;;;;3.00;1.00;;;13.30;99.90;;;;;;5069312;28;20317;-46
2023/10/22 01:08:34;;;;;;;4.47;1.15;;;13.40;99.90;;;;;;5059344;28;20160;-46
2023/10/22 01:11:10;;;;;;;2.17;1.00;;;13.30;99.90;;;;;;5066824;28;20169;-46
2023/10/22 01:13:36;;;;;;;3.63;1.10;;;13.30;99.90;;;;;;5064973;28;20044;-46
2023/10/22 01:16:02;;;;;;;3.63;1.10;;;13.30;99.90;;;;;;5067381;28;20108;-45
2023/10/22 01:18:28;;;;;;;4.13;0.90;;;13.20;99.90;;;;;;5071100;28;20044;-45
2023/10/22 01:20:53;;;;;;;5.90;1.23;;;13.20;99.90;;;;;;5061668;28;20032;-46
2023/10/22 01:23:19;;;;;;;4.00;1.02;;;13.10;99.90;;;;;;5061700;28;20053;-46
2023/10/22 01:25:45;;;;;;;5.53;1.40;;;13.10;99.90;;;;;;5065980;28;20371;-45
2023/10/22 01:28:10;;;;;;;3.28;1.10;;;13.00;99.90;;;;;;5065420;28;20037;-45
2023/10/22 01:30:36;;;;;;;3.45;1.05;;;12.90;99.90;;;;;;5064643;28;20041;-46
2023/10/22 01:33:01;;;;;;;4.05;1.20;;;12.80;99.90;;;;;;5053805;28;20519;-44
2023/10/22 01:35:27;;;;;;;2.78;1.10;;;12.70;99.90;;;;;;5051225;28;20037;-46
2023/10/22 01:37:53;;;;;;;5.00;1.63;;;12.50;99.90;;;;;;5065430;28;20381;-45
2023/10/22 01:40:19;;;;;;;4.88;1.25;;;12.50;99.90;;;;;;5069722;28;20051;-45
2023/10/22 01:42:45;;;;;;;3.10;1.08;;;12.40;99.90;;;;;;5051127;28;20041;-46
2023/10/22 01:45:11;;;;;;;9.20;1.20;;;12.30;99.90;;;;;;5061513;28;20064;-47
2023/10/22 01:47:37;;;;;;;4.07;1.05;;;12.30;99.90;;;;;;5062284;28;20032;-48
2023/10/22 01:50:04;;;;;;;5.45;1.20;;;12.20;99.90;;;;;;5065491;28;20476;-48
2023/10/22 01:52:31;;;;;;;7.73;1.03;;;12.20;99.90;;;;;;5056275;28;20093;-45
2023/10/22 01:54:56;;;;;;;3.67;1.17;;;12.20;99.90;;;;;;5063811;28;20052;-46
2023/10/22 01:57:23;;;;;;;4.05;1.20;;;12.10;99.90;;;;;;5061438;28;20181;-45
2023/10/22 01:59:50;;;;;;;3.08;1.00;;;12.10;99.90;;;;;;5063880;28;20167;-49
2023/10/22 02:02:17;;;;;;;4.33;1.07;;;12.10;99.90;;;;;;5061741;28;20041;-46
2023/10/22 02:04:43;;;;;;;4.25;1.08;;;12.10;99.90;;;;;;5058997;28;20370;-45
2023/10/22 02:07:08;;;;;;;3.13;0.90;;;12.10;99.90;;;;;;5052236;28;20131;-46
2023/10/22 02:09:34;;;;;;;5.00;1.00;;;12.10;99.90;;;;;;5053470;28;20605;-48
2023/10/22 02:12:00;;;;;;;2.15;0.80;;;12.10;99.90;;;;;;5053347;28;20044;-47
2023/10/22 02:14:26;;;;;;;4.60;1.20;;;12.10;99.90;;;;;;5062474;28;20036;-46
2023/10/22 02:16:52;;;;;;;2.65;1.15;;;12.10;99.90;;;;;;5065379;28;20040;-45
2023/10/22 02:19:18;;;;;;;3.70;1.13;;;12.10;99.90;;;;;;5072134;28;20032;-45
2023/10/22 02:21:45;;;;;;;3.83;1.10;;;12.00;99.90;;;;;;5067184;28;20048;-45
2023/10/22 02:24:10;;;;;;;4.55;1.20;;;12.00;99.90;;;;;;5065132;28;20037;-45
2023/10/22 02:26:36;;;;;;;3.85;1.20;;;12.00;99.90;;;;;;5068118;28;20044;-45
2023/10/22 02:29:02;;;;;;;5.50;1.20;;;12.00;99.90;;;;;;5062735;28;20445;-45
2023/10/22 02:31:28;;;;;;;3.22;0.93;;;12.00;99.90;;;;;;5071528;28;20322;-48
2023/10/22 02:34:05;;;;;;;3.60;1.20;;;12.00;99.90;;;;;;5058362;28;20048;-45
2023/10/22 02:36:31;;;;;;;4.28;1.45;;;12.10;99.90;;;;;;5062905;28;20517;-45
2023/10/22 02:38:57;;;;;;;5.40;1.17;;;12.10;99.90;;;;;;5069878;28;20044;-49
2023/10/22 02:41:23;;;;;;;1.85;1.10;;;12.10;99.90;;;;;;5073007;28;20041;-49
2023/10/22 02:43:48;;;;;;;3.90;1.10;;;12.10;99.90;;;;;;5066545;28;20044;-44
2023/10/22 02:46:17;;;;;;;3.38;1.20;;;12.10;99.90;;;;;;5070970;28;20060;-45
2023/10/22 02:48:43;;;;;;;2.42;1.20;;;12.10;99.90;;;;;;5065754;28;20033;-45
2023/10/22 02:51:09;;;;;;;2.90;1.30;;;12.20;99.90;;;;;;5065957;28;20079;-45
2023/10/22 02:53:34;;;;;;;4.38;1.05;;;12.20;99.90;;;;;;5066525;28;20561;-45
2023/10/22 02:56:03;;;;;;;3.58;1.20;;;12.20;99.90;;;;;;5068641;28;20398;-45
2023/10/22 02:58:30;;;;;;;2.67;1.10;;;12.30;99.90;;;;;;5064108;28;20075;-45
2023/10/22 03:01:05;;;;;;;2.70;1.15;;;12.30;99.90;;;;;;5069327;28;20056;-48
2023/10/22 03:03:31;;;;;;;1.65;0.90;;;12.30;99.90;;;;;;5063435;28;20033;-47
2023/10/22 03:05:58;;;;;;;3.20;1.00;;;12.30;99.90;;;;;;5062016;28;20237;-46
2023/10/22 03:08:24;;;;;;;3.63;1.15;;;12.40;99.90;;;;;;5063507;28;20052;-45
2023/10/22 03:10:49;;;;;;;3.90;1.20;;;12.40;99.90;;;;;;5068061;28;20033;-46
2023/10/22 03:13:15;;;;;;;2.95;1.98;;;12.50;99.90;;;;;;5063437;28;20067;-47
2023/10/22 03:15:41;;;;;;;2.08;1.00;;;12.50;99.90;;;;;;5065487;28;20485;-48
2023/10/22 03:18:07;;;;;;;4.13;1.00;;;12.50;99.90;;;;;;5064145;28;20041;-45
2023/10/22 03:20:33;;;;;;;3.83;1.25;;;12.40;99.90;;;;;;5064074;28;20037;-45
2023/10/22 03:23:01;;;;;;;3.28;1.10;;;12.40;99.90;;;;;;5053901;28;20044;-45
2023/10/22 03:25:27;;;;;;;2.45;1.10;;;12.40;99.90;;;;;;5066738;28;20044;-45
2023/10/22 03:27:53;;;;;;;5.40;1.55;;;12.30;99.90;;;;;;5063975;28;20117;-45
2023/10/22 03:30:19;;;;;;;3.70;1.20;;;12.30;99.90;;;;;;5069529;28;20036;-46
2023/10/22 03:32:45;;;;;;;2.13;1.10;;;12.30;99.90;;;;;;5067932;28;20850;-45
2023/10/22 03:35:10;;;;;;;3.20;1.40;;;12.30;99.90;;;;;;5067784;28;20077;-45
2023/10/22 03:37:36;;;;;;;4.00;1.25;;;12.30;99.90;;;;;;5060444;28;20098;-44
2023/10/22 03:40:03;;;;;;;4.07;1.27;;;12.30;99.90;;;;;;5067053;28;20115;-46
2023/10/22 03:42:29;;;;;;;2.75;1.08;;;12.20;99.90;;;;;;5070900;28;20037;-44
2023/10/22 03:44:55;;;;;;;2.78;1.30;;;12.20;99.90;;;;;;5066838;28;20051;-45
2023/10/22 03:47:21;;;;;;;3.17;1.20;;;12.20;99.90;;;;;;5068071;28;20044;-45
2023/10/22 03:49:46;;;;;;;2.50;1.20;;;12.20;99.90;;;;;;5057445;28;20060;-45
2023/10/22 03:52:12;;;;;;;3.83;1.77;;;12.20;99.90;;;;;;5055996;28;20380;-46
2023/10/22 03:54:38;;;;;;;3.38;1.00;;;12.10;99.90;;;;;;5061421;28;20040;-45
2023/10/22 03:57:04;;;;;;;2.38;1.30;;;12.10;99.90;;;;;;5065371;28;20047;-47
2023/10/22 03:59:29;;;;;;;3.60;1.27;;;12.10;99.90;;;;;;5065930;28;20045;-45
2023/10/22 04:01:55;;;;;;;5.88;1.20;;;12.10;99.90;;;;;;5068456;28;20368;-46
2023/10/22 04:04:22;;;;;;;4.22;1.35;;;12.10;99.90;;;;;;5065792;28;20053;-45
2023/10/22 04:06:47;;;;;;;4.95;1.30;;;12.10;99.90;;;;;;5067247;28;20036;-48
2023/10/22 04:09:13;;;;;;;2.42;1.10;;;12.10;99.90;;;;;;5059550;28;20041;-46
2023/10/22 04:11:39;;;;;;;3.80;1.35;;;12.10;99.90;;;;;;5065143;28;20044;-45
2023/10/22 04:14:04;;;;;;;3.60;1.27;;;12.10;99.90;;;;;;5065745;28;20036;-45
2023/10/22 04:16:30;;;;;;;2.88;1.30;;;12.10;99.90;;;;;;5066355;28;20041;-45
2023/10/22 04:18:55;;;;;;;3.30;1.35;;;12.10;99.90;;;;;;5062977;28;20037;-45
2023/10/22 04:21:21;;;;;;;3.60;1.73;;;12.10;99.90;;;;;;5064558;28;20044;-45
2023/10/22 04:23:47;;;;;;;2.08;1.42;;;12.10;99.90;;;;;;5061903;28;20076;-47
2023/10/22 04:26:13;;;;;;;2.47;1.35;;;12.10;99.90;;;;;;5057933;28;20043;-45
2023/10/22 04:28:40;;;;;;;5.07;1.65;;;12.10;99.90;;;;;;5058871;28;20041;-46
2023/10/22 04:31:07;;;;;;;2.88;1.40;;;12.10;99.90;;;;;;5056747;28;20044;-45
2023/10/22 04:33:33;;;;;;;3.17;1.40;;;12.10;99.90;;;;;;5062034;28;20072;-46
2023/10/22 04:35:58;;;;;;;3.13;1.60;;;12.10;99.90;;;;;;5065157;28;20089;-46
2023/10/22 04:38:24;;;;;;;5.30;1.63;;;12.00;99.90;;;;;;5069839;28;20483;-46
2023/10/22 04:40:49;;;;;;;4.05;1.70;;;12.00;99.90;;;;;;5057320;28;20063;-46
2023/10/22 04:43:15;;;;;;;3.00;1.60;;;12.00;99.90;;;;;;5065883;28;20167;-48
2023/10/22 04:45:48;;;;;;;1.48;1.27;;;12.10;99.90;;;;;;5063068;28;20050;-44
2023/10/22 04:48:14;;;;;;;2.53;1.58;;;12.10;99.90;;;;;;5067663;28;20041;-45
2023/10/22 04:50:41;;;;;;;2.40;1.40;;;12.00;99.90;;;;;;5045492;28;20037;-44
2023/10/22 04:53:06;;;;;;;3.38;1.65;;;12.00;99.90;;;;;;5067597;28;20445;-47
2023/10/22 04:55:32;;;;;;;5.00;1.83;;;12.00;99.90;;;;;;5062968;28;20090;-46
2023/10/22 04:57:58;;;;;;;3.55;1.60;;;12.00;99.90;;;;;;5059608;28;20366;-45
2023/10/22 05:00:23;;;;;;;2.53;1.80;;;11.90;99.90;;;;;;5064659;28;20035;-45
2023/10/22 05:02:50;;;;;;;2.92;1.52;;;12.00;99.90;;;;;;5068489;28;20037;-45
2023/10/22 05:05:15;;;;;;;2.10;1.80;;;11.90;99.90;;;;;;5067950;28;20511;-49
2023/10/22 05:07:41;;;;;;;1.90;1.63;;;11.90;99.90;;;;;;5063773;28;20070;-45
2023/10/22 05:10:07;;;;;;;2.28;2.00;;;11.90;99.90;;;;;;5063764;28;20090;-45
2023/10/22 05:12:33;;;;;;;1.80;1.58;;;11.90;99.90;;;;;;5065170;28;20079;-47
2023/10/22 05:14:58;;;;;;;2.78;1.90;;;11.90;99.90;;;;;;5062504;28;20472;-45
2023/10/22 05:17:24;;;;;;;2.28;1.90;;;11.90;99.90;;;;;;5060896;28;20037;-44
2023/10/22 05:19:50;;;;;;;1.70;1.50;;;11.90;99.90;;;;;;5062050;28;20056;-45
2023/10/22 05:22:17;;;;;;;2.90;1.90;;;11.90;99.90;;;;;;5067492;28;20048;-44
2023/10/22 05:24:49;;;;;;;2.80;2.00;;;11.90;99.90;;;;;;5061386;28;20055;-45
2023/10/22 05:27:16;;;;;;;1.83;1.70;;;11.90;99.90;;;;;;5067612;28;20089;-45
2023/10/22 05:29:43;;;;;;;2.28;1.55;;;11.90;99.90;;;;;;5064218;28;20041;-46
2023/10/22 05:32:09;;;;;;;2.05;1.80;;;11.90;99.90;;;;;;5067176;28;20041;-47
2023/10/22 05:34:35;;;;;;;3.20;1.50;;;11.90;99.90;;;;;;5050571;28;20403;-45
2023/10/22 05:37:00;;;;;;;2.03;1.23;;;11.90;99.90;;;;;;5068282;28;20052;-46
2023/10/22 05:39:26;;;;;;;2.10;1.50;;;11.90;99.90;;;;;;5056494;28;20060;-46
2023/10/22 05:41:52;;;;;;;1.40;1.30;;;11.90;99.90;;;;;;5057757;28;20424;-48
2023/10/22 05:44:19;;;;;;;1.45;1.35;;;11.90;99.90;;;;;;5062801;28;20118;-46
2023/10/22 05:46:44;;;;;;;2.33;1.75;;;11.90;99.90;;;;;;5066483;28;20052;-44
2023/10/22 05:49:11;;;;;;;3.63;1.38;;;11.90;99.90;;;;;;5073910;28;20047;-46
2023/10/22 05:51:38;;;;;;;1.30;1.20;;;11.90;99.90;;;;;;5073984;28;20048;-46
2023/10/22 05:54:04;;;;;;;1.20;1.10;;;11.90;99.90;;;;;;5066553;28;20498;-46
2023/10/22 05:56:33;;;;;;;2.47;1.50;;;11.80;99.90;;;;;;5068272;28;20053;-46
2023/10/22 05:58:59;;;;;;;2.45;1.27;;;11.80;99.90;;;;;;5063210;28;20041;-49
2023/10/22 06:01:25;;;;;;;2.13;1.30;;;11.80;99.90;;;;;;5068330;28;20134;-44
2023/10/22 06:03:50;;;;;;;4.40;1.50;;;11.80;99.90;;;;;;5068706;28;20041;-46
2023/10/22 06:06:20;;;;;;;2.28;2.03;;;11.70;99.90;;;;;;5065325;28;20421;-45
2023/10/22 06:08:46;;;;;;;2.35;1.90;;;11.70;99.90;;;;;;5069709;28;20032;-46
2023/10/22 06:11:12;;;;;;;3.78;2.10;;;11.70;99.90;;;;;;5069594;28;20044;-44
2023/10/22 06:13:38;;;;;;;3.85;1.83;;;11.70;99.90;;;;;;5066478;28;20051;-46
2023/10/22 06:16:04;;;;;;;4.82;2.00;;;11.70;99.90;;;;;;5067420;28;20032;-45
2023/10/22 06:18:30;;;;;;;2.75;2.00;;;11.60;99.90;;;;;;5040687;28;20091;-47
2023/10/22 06:20:55;;;;;;;3.05;1.95;;;11.60;99.90;;;;;;5065416;28;20052;-46
2023/10/22 06:23:21;;;;;;;2.95;1.88;;;11.60;99.90;;;;;;5062934;28;20041;-47
2023/10/22 06:25:47;;;;;;;3.05;1.80;;;11.60;99.90;;;;;;5062126;28;20052;-45
2023/10/22 06:28:13;;;;;;;5.13;1.83;;;11.50;99.90;;;;;;5054458;28;20491;-45
2023/10/22 06:30:40;;;;;;;2.15;1.63;;;11.60;99.90;;;;;;5061759;28;20048;-45
2023/10/22 06:33:06;;;;;;;3.92;1.70;;;11.50;99.90;;;;;;5059691;28;20084;-46
2023/10/22 06:35:32;;;;;;;3.03;1.70;;;11.50;99.90;;;;;;5066317;28;20148;-45
2023/10/22 06:37:58;;;;;;;3.55;1.60;;;11.50;99.90;;;;;;5072455;28;20044;-46
2023/10/22 06:40:24;;;;;;;4.47;1.70;;;11.40;99.90;;;;;;5070357;28;20041;-45
2023/10/22 06:42:50;;;;;;;2.78;1.90;;;11.40;99.90;;;;;;5058430;28;20040;-45
2023/10/22 06:45:17;;;;;;;6.72;1.83;;;11.40;99.90;;;;;;5070096;28;20518;-45
2023/10/22 06:47:42;;;;;;;4.97;2.30;;;11.40;99.90;;;;;;5070701;28;20037;-46
2023/10/22 06:50:11;;;;;;;4.43;2.67;;;11.40;99.90;;;;;;5057362;28;20059;-45
2023/10/22 06:52:38;;;;;;;4.35;2.70;;;11.40;99.90;;;;;;5061457;28;20486;-45
2023/10/22 06:55:05;;;;;;;5.50;2.65;;;11.40;99.90;;;;;;5065289;28;20063;-47
2023/10/22 06:57:30;;;;;;;5.20;2.40;;;11.40;99.90;;;;;;5063516;28;20488;-48
2023/10/22 06:59:58;;;;;;;3.63;2.65;;;11.50;99.90;;;;;;5052501;28;20048;-45
2023/10/22 07:02:24;;;;;;;6.50;2.70;;;11.40;99.90;;;;;;5053627;28;20036;-45
2023/10/22 07:04:54;;;;;;;4.82;3.00;;;11.50;99.90;;;;;;5066312;28;20047;-45
2023/10/22 07:07:21;;;;;;;5.65;3.13;;;11.50;99.90;;;;;;5063414;28;20048;-45
2023/10/22 07:09:47;;;;;;;8.32;3.97;;;11.50;99.90;;;;;;5065941;28;20036;-46
2023/10/22 07:12:13;;;;;;;10.35;3.95;;;11.60;99.90;;;;;;5065434;28;20124;-45
2023/10/22 07:14:39;;;;;;;5.65;3.80;;;11.60;99.90;;;;;;5058953;28;20044;-45
2023/10/22 07:17:05;;;;;;;5.20;3.47;;;11.70;99.90;;;;;;5068641;28;20402;-44
2023/10/22 07:19:31;;;;;;;8.68;4.70;;;11.70;99.90;;;;;;5069518;28;20127;-46
2023/10/22 07:21:56;;;;;;;8.23;4.75;;;11.70;99.90;;;;;;5058784;28;20454;-45
2023/10/22 07:24:23;;;;;;;8.80;5.13;;;11.70;99.90;;;;;;5060729;28;20041;-46
2023/10/22 07:26:49;;;;;;;6.10;5.10;;;11.70;99.90;;;;;;5067869;28;20450;-45
2023/10/22 07:29:15;;;;;;;6.78;5.50;;;11.70;99.90;;;;;;5062474;28;20120;-45
2023/10/22 07:31:43;;;;;;;7.97;5.70;;;11.80;99.90;;;;;;5061035;28;20132;-45
2023/10/22 07:34:09;;;;;;;10.75;6.25;;;11.80;99.90;;;;;;5056131;28;20155;-45
2023/10/22 07:36:35;;;;;;;6.65;5.53;;;11.80;99.90;;;;;;5070724;28;20482;-47
2023/10/22 07:39:01;;;;;;;9.32;5.78;;;11.80;99.90;;;;;;5069001;28;20051;-45
2023/10/22 07:41:27;;;;;;;9.80;6.20;;;11.80;99.90;;;;;;5065724;28;20041;-46
2023/10/22 07:43:52;;;;;;;6.45;5.78;;;11.80;99.90;;;;;;5062713;28;20201;-46
2023/10/22 07:46:18;;;;;;;9.00;5.95;;;11.90;99.90;;;;;;5066121;28;20476;-47
2023/10/22 07:48:45;;;;;;;7.60;5.90;;;11.90;99.90;;;;;;5070384;28;20055;-46
2023/10/22 07:51:15;;;;;;;7.18;5.78;;;11.90;99.90;;;;;;5054601;28;20073;-47
2023/10/22 07:53:41;;;;;;;9.07;6.13;;;11.90;99.90;;;;;;5055386;28;20052;-46
2023/10/22 07:56:08;;;;;;;10.80;6.30;;;12.00;99.90;;;;;;5050226;28;20044;-46
2023/10/22 07:58:35;;;;;;;9.57;6.07;;;12.00;99.90;;;;;;5062899;28;20374;-45
2023/10/22 08:01:02;;;;;;;8.70;5.95;;;12.10;99.90;;;;;;5061544;28;20218;-45
2023/10/22 08:03:29;;;;;;;9.15;5.40;;;12.10;99.90;;;;;;5069638;28;20044;-45
2023/10/22 08:05:55;;;;;;;8.88;5.65;;;12.20;99.90;;;;;;5063552;28;20079;-45
2023/10/22 08:08:21;;;;;;;6.65;4.80;;;12.20;99.90;;;;;;5067203;28;20041;-46
2023/10/22 08:10:47;;;;;;;6.47;4.68;;;12.20;99.90;;;;;;5066305;28;20151;-46
2023/10/22 08:13:13;;;;;;;8.75;4.93;;;12.20;99.90;;;;;;5066102;28;20542;-47
2023/10/22 08:15:39;;;;;;;6.07;4.00;;;12.30;99.90;;;;;;5066128;28;20120;-45
2023/10/22 08:18:05;;;;;;;4.85;4.18;;;;;;;;;;5058751;28;20044;-45
2023/10/22 08:20:34;;;;;;;6.38;3.60;;;12.40;99.90;;;;;;5064507;28;20109;-45
2023/10/22 08:22:59;;;;;;;9.18;3.92;;;12.50;99.90;;;;;;5058127;28;20131;-47
2023/10/22 08:25:25;;;;;;;7.45;4.00;;;12.60;99.90;;;;;;5061731;28;20471;-47
2023/10/22 08:27:51;;;;;;;7.97;3.75;;;;;;;;;;5047861;28;20037;-48
2023/10/22 08:30:17;;;;;;;6.38;3.47;;;12.70;99.90;;;;;;5062369;28;20037;-45
2023/10/22 08:32:51;;;;;;;7.00;3.25;;;12.70;99.90;;;;;;5058810;28;20039;-45
2023/10/22 08:35:17;;;;;;;6.72;3.95;;;12.70;99.90;;;;;;5064265;28;20044;-45
2023/10/22 08:37:44;;;;;;;8.48;3.40;;;12.80;99.90;;;;;;5058313;28;20033;-48
2023/10/22 08:40:10;;;;;;;5.72;3.10;;;12.90;99.90;;;;;;5068318;28;20402;-46
2023/10/22 08:42:37;;;;;;;5.13;3.05;;;12.90;99.90;;;;;;5063499;28;20483;-46
2023/10/22 08:45:04;;;;;;;4.35;2.80;;;12.90;99.90;;;;;;5062323;28;20060;-46
2023/10/22 08:47:30;;;;;;;4.75;2.88;;;12.80;99.90;;;;;;5063458;28;20049;-46
2023/10/22 08:49:56;;;;;;;5.05;2.75;;;12.80;99.90;;;;;;5063162;28;20060;-49
2023/10/22 08:52:23;;;;;;;6.00;2.80;;;12.80;99.90;;;;;;5061798;28;20140;-45
2023/10/22 08:54:49;;;;;;;4.30;2.50;;;12.80;99.90;;;;;;5066775;28;20041;-46
2023/10/22 08:57:16;;;;;;;5.70;2.72;;;12.80;99.90;;;;;;5059582;28;20033;-45
2023/10/22 08:59:44;;;;;;;5.82;2.95;;;13.00;99.90;;;;;;5069685;28;20094;-47
2023/10/22 09:02:11;;;;;;;3.88;2.63;;;13.10;99.90;;;;;;5069110;28;20127;-47
2023/10/22 09:04:38;;;;;;;5.13;2.28;;;13.20;99.90;;;;;;5058549;28;20055;-48
2023/10/22 09:07:04;;;;;;;3.92;2.45;;;13.30;99.90;;;;;;5059697;28;20473;-48
2023/10/22 09:09:33;;;;;;;7.03;2.90;;;13.40;99.90;;;;;;5062749;28;20036;-48
2023/10/22 09:11:59;;;;;;;4.57;2.65;;;13.40;99.90;;;;;;5060802;28;20041;-45
2023/10/22 09:14:25;;;;;;;3.88;2.92;;;13.40;99.90;;;;;;5055207;28;20037;-45
2023/10/22 09:16:51;;;;;;;7.78;3.40;;;13.50;99.90;;;;;;5065848;28;20545;-46
2023/10/22 09:19:36;;;;;;;4.45;3.05;;;13.80;99.90;;;;;;5062153;28;20051;-48
2023/10/22 09:22:05;;;;;;;8.05;3.13;;;13.90;99.90;;;;;;5054034;28;20043;-46
2023/10/22 09:24:34;;;;;;;5.22;3.42;;;14.10;99.90;;;;;;5067985;28;20045;-45
2023/10/22 09:26:59;;;;;;;5.50;3.10;;;14.00;99.90;;;;;;5056151;28;20095;-49
2023/10/22 09:29:26;;;;;;;3.95;3.00;;;14.20;99.90;;;;;;5069554;28;20076;-45
2023/10/22 09:31:53;;;;;;;6.38;3.90;;;14.10;99.90;;;;;;5082992;28;20539;-46
2023/10/22 09:34:27;;;;;;;4.95;4.45;;;14.10;99.90;;;;;;5071015;28;20048;-46
2023/10/22 09:36:53;;;;;;;7.32;4.32;;;14.20;99.90;;;;;;5055823;28;20050;-47
2023/10/22 09:39:33;;;;;;;5.85;4.63;;;14.30;99.90;;;;;;5071359;28;20045;-49
2023/10/22 09:41:59;;;;;;;7.97;4.90;;;14.40;99.90;;;;;;5054948;28;20041;-44
2023/10/22 09:44:26;;;;;;;4.93;4.53;;;14.30;99.90;;;;;;5067436;28;20044;-47
2023/10/22 09:46:54;;;;;;;5.43;4.90;;;14.10;99.90;;;;;;5065246;28;20132;-46
2023/10/22 09:49:21;;;;;;;5.37;4.47;;;14.00;99.90;;;;;;5055550;28;20041;-46
2023/10/22 09:51:50;;;;;;;7.85;4.97;;;13.90;99.90;;;;;;5057305;28;20295;-48
2023/10/22 09:54:20;;;;;;;6.88;5.03;;;14.20;99.90;;;;;;5065096;28;20051;-46
2023/10/22 09:56:52;;;;;;;5.75;4.43;;;14.30;99.90;;;;;;5059613;28;20056;-46
2023/10/22 09:59:22;;;;;;;7.18;4.68;;;14.40;99.90;;;;;;5070822;28;20506;-46
2023/10/22 10:01:51;;;;;;;6.15;4.63;;;14.50;99.90;;;;;;5071883;28;20045;-47
2023/10/22 10:04:19;;;;;;;7.55;4.80;;;14.50;99.90;;;;;;5068105;28;20036;-46
2023/10/22 10:06:46;;;;;;;4.40;4.00;;;14.70;99.90;;;;;;5054699;28;20036;-47
2023/10/22 10:09:12;;;;;;;5.70;4.30;;;14.80;99.90;;;;;;5065264;28;20339;-48
2023/10/22 10:11:39;;;;;;;6.60;4.68;;;15.00;99.90;;;;;;5062625;28;20052;-48
2023/10/22 10:14:38;;;;;;;4.63;4.20;;;14.80;99.90;;;;;;5049587;28;20037;-49
2023/10/22 10:17:04;;;;;;;4.50;3.90;;;14.80;99.90;;;;;;5057957;28;20124;-48
2023/10/22 10:19:30;;;;;;;5.95;3.83;;;14.70;99.90;;;;;;5066066;28;20430;-47
2023/10/22 10:21:57;;;;;;;6.43;4.30;;;14.70;99.90;;;;;;5064494;28;20040;-49
2023/10/22 10:24:30;;;;;;;7.20;4.07;;;14.90;99.90;;;;;;5062172;28;20064;-47
2023/10/22 10:26:56;;;;;;;6.90;4.68;;;14.90;99.90;;;;;;5060440;28;20070;-48
2023/10/22 10:29:26;;;;;;;6.40;4.28;;;14.90;99.90;;;;;;5054521;28;20189;-47
2023/10/22 10:31:54;;;;;;;7.72;3.90;;;14.90;99.90;;;;;;5060060;28;20048;-46
2023/10/22 10:34:36;;;;;;;9.48;4.22;;;14.80;99.90;;;;;;5059550;28;20483;-46
2023/10/22 10:37:12;;;;;;;4.25;3.65;;;14.80;99.90;;;;;;5054860;28;20041;-47
2023/10/22 10:39:42;;;;;;;8.15;4.10;;;14.60;99.90;;;;;;5054204;28;20064;-47
2023/10/22 10:42:08;;;;;;;5.90;3.35;;;14.50;99.90;;;;;;5057856;28;20446;-45
2023/10/22 10:45:00;;;;;;;3.92;3.45;;;14.40;99.90;;;;;;5070702;28;20080;-47
2023/10/22 10:47:30;;;;;;;6.43;3.67;;;14.40;99.90;;;;;;5073301;28;20051;-48
2023/10/22 10:50:04;;;;;;;4.85;3.42;;;14.70;99.90;;;;;;5070028;28;20049;-47
2023/10/22 10:52:38;;;;;;;3.78;3.03;;;14.90;99.90;;;;;;5066601;28;20076;-45
2023/10/22 10:55:07;;;;;;;4.82;3.40;;;15.10;99.90;;;;;;5054847;28;20076;-48
2023/10/22 10:57:37;;;;;;;4.45;2.97;;;15.40;99.90;;;;;;5063855;28;20060;-46
2023/10/22 11:00:16;;;;;;;4.25;3.47;;;15.40;99.90;;;;;;5066616;28;20371;-49
2023/10/22 11:02:43;;;;;;;4.60;3.42;;;15.50;99.90;;;;;;5070880;28;20511;-46
2023/10/22 11:05:12;;;;;;;3.90;2.90;;;15.60;99.90;;;;;;5066169;28;20029;-49
2023/10/22 11:07:40;;;;;;;5.65;2.90;;;15.50;99.90;;;;;;5067853;28;20073;-46
2023/10/22 11:10:16;;;;;;;4.13;2.72;;;15.80;99.90;;;;;;5064947;28;20086;-47
2023/10/22 11:12:43;;;;;;;6.40;2.75;;;15.80;99.90;;;;;;5065463;28;20487;-48
2023/10/22 11:15:10;;;;;;;4.13;2.23;;;15.80;99.90;;;;;;5063433;28;20132;-49
2023/10/22 11:17:44;;;;;;;5.57;2.00;;;15.60;99.90;;;;;;5066565;28;20111;-46
2023/10/22 11:20:13;;;;;;;4.00;1.70;;;15.60;99.90;;;;;;5041131;28;20510;-48
2023/10/22 11:22:39;;;;;;;2.83;1.75;;;15.50;99.90;;;;;;5062306;28;20048;-45
2023/10/22 11:25:08;;;;;;;2.63;1.40;;;15.30;99.90;;;;;;5065504;28;20068;-49
2023/10/22 11:27:38;;;;;;;4.40;1.35;;;15.30;99.90;;;;;;5061373;28;20133;-49
2023/10/22 11:30:05;;;;;;;2.30;1.40;;;15.30;99.90;;;;;;5068685;28;20036;-46
2023/10/22 11:32:31;;;;;;;3.00;1.45;;;15.30;99.90;;;;;;5069087;28;20041;-47
2023/10/22 11:34:56;;;;;;;4.93;1.30;;;15.30;99.90;;;;;;5065537;28;20036;-45
2023/10/22 11:37:28;;;;;;;1.60;1.05;;;15.30;99.90;;;;;;5064049;28;20048;-45
2023/10/22 11:39:54;;;;;;;2.13;1.20;;;15.30;99.90;;;;;;5062118;28;20390;-47
2023/10/22 11:42:20;;;;;;;1.30;1.17;;;15.10;99.90;;;;;;5064728;28;20036;-46
2023/10/22 11:44:46;;;;;;;2.88;1.20;;;;;;;;;;5065886;28;20138;-48
2023/10/22 11:47:26;;;;;;;2.50;1.17;;;14.80;99.90;;;;;;5051783;28;20171;-46
2023/10/22 11:49:53;;;;;;;4.43;1.30;;;14.60;99.90;;;;;;5067178;28;20075;-45
2023/10/22 11:52:46;;;;;;;4.43;1.40;;;14.40;99.90;;;;;;5064990;28;20047;-46
2023/10/22 11:55:11;;;;;;;4.20;1.30;;;14.30;99.90;;;;;;5058321;28;20471;-45
2023/10/22 11:57:38;;;;;;;3.53;1.23;;;14.10;99.90;;;;;;5049844;28;20048;-48
2023/10/22 12:00:06;;;;;;;2.27;1.33;;;13.90;99.90;;;;;;5062932;28;20047;-47
2023/10/22 12:02:32;;;;;;;3.03;1.27;;;13.80;99.90;;;;;;5066547;28;20090;-47
2023/10/22 12:04:57;;;;;;;3.30;1.50;;;13.70;99.90;;;;;;5064868;28;20545;-47
2023/10/22 12:07:23;;;;;;;6.13;1.80;;;13.60;99.90;;;;;;5066059;28;20059;-46
2023/10/22 12:09:49;;;;;;;5.80;1.58;;;13.50;99.90;;;;;;5065482;28;20051;-46
2023/10/22 12:12:15;;;;;;;2.78;1.52;;;13.40;99.90;;;;;;5060123;28;20088;-45
2023/10/22 12:14:42;;;;;;;5.13;1.45;;;13.30;99.90;;;;;;5065495;28;20069;-48
2023/10/22 12:17:08;;;;;;;2.92;1.10;;;13.20;99.90;;;;;;5061422;28;20052;-44
2023/10/22 12:19:35;;;;;;;1.73;0.80;;;13.00;99.90;;;;;;5062199;28;20040;-46
2023/10/22 12:22:00;;;;;;;1.58;0.75;;;12.80;99.90;;;;;;5063762;28;20064;-46
2023/10/22 12:24:26;;;;;;;0.88;0.50;;;12.80;99.90;;;;;;5065667;28;20406;-45
2023/10/22 12:26:52;;;;;;;2.58;0.80;;;12.80;99.90;;;;;;5061997;28;20402;-45
2023/10/22 12:29:17;;;;;;;1.95;0.50;;;12.80;99.90;;;;;;5069707;28;20029;-46
2023/10/22 12:31:43;;;;;;;1.60;0.73;;;12.70;99.90;;;;;;5058666;28;20408;-45
2023/10/22 12:34:09;;;;;;;1.27;0.70;;;12.70;99.90;;;;;;5051198;28;20044;-44
2023/10/22 12:36:35;;;;;;;1.35;0.70;;;12.70;99.90;;;;;;5060439;28;20045;-47
2023/10/22 12:39:01;;;;;;;3.30;0.90;;;12.70;99.90;;;;;;5057668;28;20170;-46
2023/10/22 12:41:26;;;;;;;2.78;1.00;;;12.60;99.90;;;;;;5061834;28;20036;-46
2023/10/22 12:43:52;;;;;;;3.45;1.20;;;12.50;99.90;;;;;;5066798;28;20493;-45
2023/10/22 12:46:18;;;;;;;2.83;1.17;;;12.50;99.90;;;;;;5067964;28;20059;-46